Time;durP1;ratioP1;P1;durP2;ratioP2;P2;SDS_P1;SDS_P2;PMS_P1;PMS_P2;Temp;Humidity;BMP_temperature;BMP_pressure;BME280_temperature;BME280_humidity;BME280_pressure;Samples;Min_cycle;Max_cycle;Signal;HPM_P1;HPM_P2
2022/09/30 00:01:04;;;;;;;;;28.75;27.50;;;;;11.75;100.00;100633.50;5032748;28;45421;-80
2022/09/30 00:03:30;;;;;;;;;29.00;25.50;;;;;11.76;100.00;100627.06;5024805;28;45812;-80
2022/09/30 00:06:00;;;;;;;;;38.50;33.50;;;;;11.84;100.00;100640.69;5037578;28;45634;-80
2022/09/30 00:08:25;;;;;;;;;36.50;32.00;;;;;11.91;100.00;100655.38;5036578;28;46477;-79
2022/09/30 00:11:03;;;;;;;;;24.50;23.00;;;;;11.90;100.00;100654.53;5035978;28;45349;-79
2022/09/30 00:13:32;;;;;;;;;35.50;29.00;;;;;11.92;100.00;100657.09;5041250;28;45452;-79
2022/09/30 00:15:58;;;;;;;;;30.50;29.25;;;;;11.87;100.00;100657.56;5048569;28;45184;-80
2022/09/30 00:18:24;;;;;;;;;29.75;28.25;;;;;11.82;100.00;100650.91;5047594;28;48401;-80
2022/09/30 00:20:49;;;;;;;;;33.75;28.75;;;;;11.75;100.00;100634.34;5037124;28;45452;-80
2022/09/30 00:23:14;;;;;;;;;33.50;28.25;;;;;11.79;100.00;100637.59;5031559;28;45464;-80
2022/09/30 00:25:40;;;;;;;;;31.25;29.25;;;;;11.72;100.00;100640.06;5041429;28;45243;-80
2022/09/30 00:28:06;;;;;;;;;38.50;31.00;;;;;11.64;100.00;100643.59;5037194;28;47918;-80
2022/09/30 00:30:33;;;;;;;;;28.50;26.75;;;;;11.59;100.00;100651.38;5036333;28;45688;-80
2022/09/30 00:32:58;;;;;;;;;30.25;28.75;;;;;11.62;100.00;100653.75;5049240;28;45487;-80
2022/09/30 00:35:24;;;;;;;;;28.25;25.50;;;;;11.58;100.00;100654.25;5045352;28;45539;-80
2022/09/30 00:37:49;;;;;;;;;30.75;29.25;;;;;11.57;100.00;100650.66;5050185;28;47158;-78
2022/09/30 00:40:15;;;;;;;;;27.00;26.00;;;;;11.53;100.00;100635.69;5039498;28;45898;-77
2022/09/30 00:42:40;;;;;;;;;28.75;24.75;;;;;11.45;100.00;100638.34;5035004;28;45414;-77
2022/09/30 00:45:09;;;;;;;;;33.00;25.25;;;;;11.51;100.00;100648.59;5034151;28;45626;-77
2022/09/30 00:47:41;;;;;;;;;28.00;25.50;;;;;11.50;100.00;100663.19;5027888;28;45422;-77
2022/09/30 00:50:09;;;;;;;;;22.25;22.25;;;;;11.49;100.00;100666.06;5029621;28;45607;-77
2022/09/30 00:52:35;;;;;;;;;26.00;23.50;;;;;11.35;100.00;100650.28;5028649;28;45564;-78
2022/09/30 00:55:07;;;;;;;;;30.00;26.75;;;;;11.35;100.00;100653.88;5038493;28;45402;-78
2022/09/30 00:57:33;;;;;;;;;28.50;27.00;;;;;11.26;100.00;100660.22;5043440;28;46218;-77
2022/09/30 01:00:00;;;;;;;;;28.00;24.75;;;;;11.33;100.00;100659.47;5031221;28;45483;-79
2022/09/30 01:02:25;;;;;;;;;25.75;21.50;;;;;11.28;100.00;100659.06;5039719;28;45381;-78
2022/09/30 01:04:53;;;;;;;;;27.00;25.50;;;;;11.15;100.00;100647.72;5026218;28;45429;-78
2022/09/30 01:07:20;;;;;;;;;30.50;26.50;;;;;11.19;100.00;100664.56;5041630;28;45625;-78
2022/09/30 01:09:47;;;;;;;;;27.25;25.75;;;;;11.14;100.00;100643.31;5025512;28;45970;-77
2022/09/30 01:12:19;;;;;;;;;28.25;28.25;;;;;11.22;100.00;100656.13;5032640;28;45489;-78
2022/09/30 01:14:50;;;;;;;;;27.00;26.00;;;;;11.32;100.00;100670.50;5041205;28;45745;-78
2022/09/30 01:17:20;;;;;;;;;27.00;23.50;;;;;11.29;100.00;100670.81;5027219;28;45664;-77
2022/09/30 01:20:16;;;;;;;;;26.50;21.50;;;;;11.16;100.00;100657.59;5039472;28;45660;-78
2022/09/30 01:23:27;;;;;;;;;29.75;25.75;;;;;11.30;100.00;100667.94;5031203;28;45348;-78
2022/09/30 01:26:44;;;;;;;;;34.50;32.00;;;;;11.24;100.00;100656.84;5035216;28;45499;-77
2022/09/30 01:29:42;;;;;;;;;27.75;24.00;;;;;11.20;100.00;100664.44;5019636;28;47931;-77
2022/09/30 01:32:20;;;;;;;;;29.00;27.50;;;;;11.18;100.00;100665.59;5037116;28;45385;-78
2022/09/30 01:34:58;;;;;;;;;32.00;28.00;;;;;11.17;100.00;100663.91;5033796;28;45496;-78
2022/09/30 01:37:48;;;;;;;;;29.50;25.75;;;;;11.14;100.00;100656.03;5048198;28;46374;-77
2022/09/30 01:40:25;;;;;;;;;33.50;30.25;;;;;11.11;100.00;100669.94;5029853;28;47751;-78
2022/09/30 01:43:30;;;;;;;;;30.75;28.50;;;;;11.14;100.00;100672.34;5033279;28;45502;-78
2022/09/30 01:45:58;;;;;;;;;27.25;26.50;;;;;11.16;100.00;100664.91;5031988;28;45507;-77
2022/09/30 01:48:39;;;;;;;;;32.75;29.75;;;;;11.08;100.00;100670.25;5035904;28;45442;-77
2022/09/30 01:51:16;;;;;;;;;30.75;24.75;;;;;11.00;100.00;100670.16;5032132;28;46379;-77
2022/09/30 01:53:55;;;;;;;;;30.00;26.25;;;;;11.02;100.00;100682.59;5027470;28;45493;-77
2022/09/30 01:56:37;;;;;;;;;25.75;24.50;;;;;10.86;100.00;100647.94;5035346;28;45400;-77
2022/09/30 01:59:11;;;;;;;;;26.50;25.00;;;;;11.01;100.00;100680.88;5036550;28;45448;-77
2022/09/30 02:02:07;;;;;;;;;31.00;29.25;;;;;10.97;100.00;100671.31;5040112;28;47865;-78
2022/09/30 02:04:39;;;;;;;;;27.50;24.25;;;;;10.95;100.00;100664.34;5013086;28;45328;-76
2022/09/30 02:07:10;;;;;;;;;32.25;28.25;;;;;10.94;100.00;100666.19;5047747;28;45401;-77
2022/09/30 02:09:54;;;;;;;;;27.75;24.00;;;;;10.91;100.00;100664.63;5029514;28;45374;-77
2022/09/30 02:12:26;;;;;;;;;25.50;22.25;;;;;10.81;100.00;100650.22;5028202;28;45789;-77
2022/09/30 02:14:56;;;;;;;;;27.50;24.00;;;;;10.97;100.00;100678.63;5032196;28;45472;-77
2022/09/30 02:17:28;;;;;;;;;21.75;18.00;;;;;10.80;100.00;100642.25;5030450;28;46266;-78
2022/09/30 02:20:01;;;;;;;;;21.50;21.50;;;;;11.03;100.00;100665.25;5039913;28;47692;-77
2022/09/30 02:22:45;;;;;;;;;31.75;27.00;;;;;11.05;100.00;100659.69;5033956;28;45557;-77
2022/09/30 02:25:19;;;;;;;;;22.00;21.00;;;;;11.03;100.00;100667.16;5035849;28;45528;-77
2022/09/30 02:27:55;;;;;;;;;19.75;19.75;;;;;10.90;100.00;100662.91;5037889;28;45336;-78
2022/09/30 02:30:21;;;;;;;;;24.25;22.00;;;;;10.88;100.00;100673.06;5027489;28;45330;-78
2022/09/30 02:32:54;;;;;;;;;26.50;25.25;;;;;10.76;100.00;100652.56;5054839;28;47705;-78
2022/09/30 02:35:30;;;;;;;;;27.25;24.25;;;;;10.78;100.00;100660.56;5029525;28;45610;-78
2022/09/30 02:38:05;;;;;;;;;26.00;25.00;;;;;10.76;100.00;100673.44;5032433;28;45472;-78
2022/09/30 02:40:39;;;;;;;;;24.25;23.25;;;;;10.73;100.00;100661.03;5035103;28;45295;-78
2022/09/30 02:43:06;;;;;;;;;26.00;23.00;;;;;10.79;100.00;100668.56;5029997;28;45554;-78
2022/09/30 02:45:56;;;;;;;;;28.00;26.75;;;;;10.75;100.00;100675.31;5037321;28;45323;-75
2022/09/30 02:48:47;;;;;;;;;29.50;26.25;;;;;10.68;100.00;100681.50;5034049;28;45274;-77
2022/09/30 02:51:31;;;;;;;;;28.25;25.50;;;;;10.69;100.00;100683.22;5034738;28;45654;-77
2022/09/30 02:54:10;;;;;;;;;29.00;28.75;;;;;10.69;100.00;100684.06;5039626;28;45422;-77
2022/09/30 02:56:44;;;;;;;;;25.00;25.00;;;;;10.69;100.00;100675.06;5049343;28;45175;-76
2022/09/30 02:59:09;;;;;;;;;28.00;26.50;;;;;10.66;100.00;100659.06;5052937;28;45453;-77
2022/09/30 03:01:40;;;;;;;;;29.25;25.00;;;;;10.79;100.00;100690.31;5033331;28;45561;-76
2022/09/30 03:04:09;;;;;;;;;30.75;27.50;;;;;10.74;100.00;100683.63;5030893;28;46218;-76
2022/09/30 03:06:36;;;;;;;;;25.75;25.50;;;;;10.75;100.00;100672.59;5039584;28;45478;-76
2022/09/30 03:09:02;;;;;;;;;31.75;26.75;;;;;10.87;100.00;100692.28;5037167;28;45455;-77
2022/09/30 03:11:30;;;;;;;;;29.50;24.25;;;;;10.68;100.00;100663.31;5036282;28;45334;-77
2022/09/30 03:14:31;;;;;;;;;27.50;22.25;;;;;10.82;100.00;100694.56;5028405;28;47245;-76
2022/09/30 03:17:25;;;;;;;;;25.00;23.25;;;;;10.65;100.00;100679.97;5032859;28;45421;-77
2022/09/30 03:20:11;;;;;;;;;29.75;25.75;;;;;10.87;100.00;100714.88;5034649;28;46290;-76
2022/09/30 03:22:51;;;;;;;;;28.50;24.00;;;;;10.86;100.00;100720.47;5028536;28;45229;-76
2022/09/30 03:25:20;;;;;;;;;26.25;24.50;;;;;10.85;100.00;100721.47;5026490;28;46974;-79
2022/09/30 03:27:53;;;;;;;;;25.50;24.00;;;;;10.84;100.00;100720.59;5038902;28;45220;-76
2022/09/30 03:30:25;;;;;;;;;25.00;23.00;;;;;10.81;100.00;100718.19;5031343;28;45394;-78
2022/09/30 03:33:31;;;;;;;;;24.75;24.50;;;;;10.73;100.00;100715.38;5058657;28;45537;-77
2022/09/30 03:36:05;;;;;;;;;30.50;24.50;;;;;10.91;100.00;100743.47;5037549;28;46610;-78
2022/09/30 03:38:42;;;;;;;;;29.50;25.25;;;;;10.92;100.00;100747.03;5034245;28;45431;-77
2022/09/30 03:41:36;;;;;;;;;30.50;28.25;;;;;10.87;100.00;100746.63;5040934;28;45398;-77
2022/09/30 03:44:12;;;;;;;;;35.00;28.50;;;;;10.88;100.00;100765.50;5039412;28;45468;-77
2022/09/30 03:46:43;;;;;;;;;26.50;23.75;;;;;10.77;100.00;100757.53;5040136;28;45563;-77
2022/09/30 03:49:18;;;;;;;;;30.25;26.75;;;;;10.74;100.00;100752.41;5024148;28;45359;-78
2022/09/30 03:51:44;;;;;;;;;31.75;28.75;;;;;10.75;100.00;100758.69;5031563;28;45604;-77
2022/09/30 03:54:11;;;;;;;;;41.25;37.00;;;;;10.73;100.00;100752.56;5044646;28;45482;-77
2022/09/30 03:56:41;;;;;;;;;32.75;32.75;;;;;10.80;100.00;100770.84;5031869;28;45338;-78
2022/09/30 03:59:24;;;;;;;;;35.50;32.50;;;;;10.70;100.00;100767.31;5030312;28;45451;-78
2022/09/30 04:01:50;;;;;;;;;28.25;26.75;;;;;10.79;100.00;100790.00;5031106;28;45752;-77
2022/09/30 04:04:16;;;;;;;;;30.75;27.00;;;;;10.80;100.00;100791.72;5034596;28;45260;-77
2022/09/30 04:06:42;;;;;;;;;27.75;26.25;;;;;10.64;100.00;100789.63;5038130;28;46406;-77
2022/09/30 04:09:07;;;;;;;;;29.75;26.50;;;;;10.70;100.00;100804.47;5036278;28;45310;-77
2022/09/30 04:11:32;;;;;;;;;28.75;28.75;;;;;10.64;100.00;100799.66;5036671;28;45429;-77
2022/09/30 04:14:00;;;;;;;;;34.00;29.50;;;;;10.64;100.00;100807.81;5027795;28;45508;-75
2022/09/30 04:16:27;;;;;;;;;28.75;26.25;;;;;10.50;100.00;100798.25;5038914;28;47310;-78
2022/09/30 04:18:52;;;;;;;;;25.00;24.50;;;;;10.45;100.00;100793.25;5033539;28;45392;-78
2022/09/30 04:21:18;;;;;;;;;21.00;20.75;;;;;10.59;100.00;100819.13;5032007;28;45528;-76
2022/09/30 04:23:43;;;;;;;;;30.75;27.25;;;;;10.61;100.00;100827.09;5033109;28;45366;-78
2022/09/30 04:26:14;;;;;;;;;29.75;26.25;;;;;10.59;100.00;100834.56;5040077;28;46571;-78
2022/09/30 04:28:40;;;;;;;;;34.50;31.50;;;;;10.52;100.00;100831.53;5044020;28;45312;-78
2022/09/30 04:31:06;;;;;;;;;29.75;27.25;;;;;10.41;100.00;100826.28;5034179;28;45429;-78
2022/09/30 04:33:32;;;;;;;;;26.00;23.50;;;;;10.37;100.00;100816.72;5028313;28;45464;-77
2022/09/30 04:35:59;;;;;;;;;29.75;24.00;;;;;10.42;100.00;100828.00;5040831;28;45473;-77
2022/09/30 04:38:25;;;;;;;;;25.25;22.75;;;;;10.44;100.00;100821.44;5047523;28;45555;-76
2022/09/30 04:40:53;;;;;;;;;28.25;26.50;;;;;10.59;100.00;100840.84;5032076;28;47551;-76
2022/09/30 04:43:19;;;;;;;;;27.25;23.00;;;;;10.50;100.00;100847.16;5031204;28;45175;-78
2022/09/30 04:45:45;;;;;;;;;20.50;19.75;;;;;10.39;100.00;100833.72;5040215;28;45423;-77
2022/09/30 04:48:12;;;;;;;;;26.25;24.75;;;;;10.48;100.00;100832.84;5033382;28;45348;-77
2022/09/30 04:50:37;;;;;;;;;24.75;23.00;;;;;10.49;100.00;100829.13;5041262;28;45355;-75
2022/09/30 04:53:02;;;;;;;;;26.50;24.25;;;;;10.51;100.00;100849.72;5047826;28;45345;-75
2022/09/30 04:55:28;;;;;;;;;22.75;22.75;;;;;10.50;100.00;100837.16;5034997;28;48056;-76
2022/09/30 04:57:53;;;;;;;;;26.25;23.25;;;;;10.40;100.00;100820.00;5036114;28;45397;-76
2022/09/30 05:00:19;;;;;;;;;22.25;19.00;;;;;10.47;100.00;100840.13;5030882;28;45505;-76
2022/09/30 05:02:45;;;;;;;;;24.25;21.75;;;;;10.49;100.00;100840.88;5047534;28;45154;-76
2022/09/30 05:05:10;;;;;;;;;31.25;24.50;;;;;10.45;100.00;100844.00;5037254;28;47410;-75
2022/09/30 05:07:36;;;;;;;;;39.75;27.50;;;;;10.48;100.00;100844.56;5048100;28;45552;-76
2022/09/30 05:10:01;;;;;;;;;31.75;24.00;;;;;10.47;100.00;100859.16;5022926;28;45359;-78
2022/09/30 05:12:26;;;;;;;;;26.50;26.00;;;;;10.38;100.00;100845.56;5036740;28;45461;-78
2022/09/30 05:14:52;;;;;;;;;28.25;24.00;;;;;10.31;100.00;100844.44;5025709;28;45553;-75
2022/09/30 05:17:17;;;;;;;;;28.00;23.25;;;;;10.36;100.00;100855.75;5052264;28;45455;-76
2022/09/30 05:19:42;;;;;;;;;30.50;24.50;;;;;10.42;100.00;100866.91;5034807;28;45366;-77
2022/09/30 05:22:09;;;;;;;;;26.25;24.25;;;;;10.35;100.00;100862.19;5034315;28;45504;-77
2022/09/30 05:24:34;;;;;;;;;23.75;23.00;;;;;10.38;100.00;100864.59;5034865;28;46521;-77
2022/09/30 05:27:00;;;;;;;;;21.50;21.50;;;;;10.35;100.00;100859.47;5031387;28;45733;-77
2022/09/30 05:29:26;;;;;;;;;28.25;25.25;;;;;10.37;100.00;100868.34;5034958;28;45523;-76
2022/09/30 05:31:51;;;;;;;;;29.50;27.25;;;;;10.27;100.00;100864.75;5032108;28;45410;-78
2022/09/30 05:34:17;;;;;;;;;27.50;25.75;;;;;10.27;100.00;100872.91;5028131;28;45434;-78
2022/09/30 05:36:43;;;;;;;;;29.25;26.00;;;;;10.14;100.00;100854.16;5033200;28;45448;-76
2022/09/30 05:39:09;;;;;;;;;29.50;28.25;;;;;10.21;100.00;100873.47;5032828;28;45503;-76
2022/09/30 05:41:34;;;;;;;;;28.00;22.75;;;;;10.25;100.00;100870.31;5017352;28;45546;-78
2022/09/30 05:44:00;;;;;;;;;32.75;25.50;;;;;10.35;100.00;100886.63;5035785;28;46569;-78
2022/09/30 05:46:25;;;;;;;;;20.50;18.25;;;;;10.36;100.00;100878.34;5032876;28;45462;-76
2022/09/30 05:48:52;;;;;;;;;25.50;24.50;;;;;10.40;100.00;100884.31;5036792;28;45244;-78
2022/09/30 05:51:17;;;;;;;;;22.75;21.00;;;;;10.40;100.00;100892.47;5038553;28;45571;-76
2022/09/30 05:53:43;;;;;;;;;23.25;22.50;;;;;10.36;100.00;100889.19;5038442;28;46875;-78
2022/09/30 05:56:10;;;;;;;;;27.25;23.25;;;;;10.33;100.00;100883.19;5034566;28;45459;-76
2022/09/30 05:58:36;;;;;;;;;22.00;21.00;;;;;10.29;100.00;100884.50;5030773;28;45316;-77
2022/09/30 06:01:07;;;;;;;;;24.75;23.75;;;;;10.21;100.00;100892.47;5036779;28;45415;-77
2022/09/30 06:03:33;;;;;;;;;22.75;21.75;;;;;10.20;100.00;100898.91;5033581;28;48379;-75
2022/09/30 06:05:59;;;;;;;;;28.50;24.25;;;;;10.22;100.00;100899.63;5030715;28;45736;-76
2022/09/30 06:08:25;;;;;;;;;23.00;19.50;;;;;10.17;100.00;100889.19;5034631;28;45511;-78
2022/09/30 06:10:50;;;;;;;;;21.50;21.50;;;;;10.30;100.00;100911.47;5031785;28;45736;-78
2022/09/30 06:13:16;;;;;;;;;28.50;22.00;;;;;10.27;100.00;100902.78;5051334;28;48231;-82
2022/09/30 06:15:43;;;;;;;;;24.50;23.50;;;;;10.33;100.00;100908.50;5039940;28;45443;-78
2022/09/30 06:18:08;;;;;;;;;24.00;20.50;;;;;10.38;100.00;100908.03;5022836;28;45341;-78
2022/09/30 06:20:35;;;;;;;;;27.25;25.75;;;;;10.35;100.00;100900.19;5027651;28;45693;-78
2022/09/30 06:23:01;;;;;;;;;24.50;22.75;;;;;10.53;100.00;100923.78;5048304;28;47706;-76
2022/09/30 06:25:28;;;;;;;;;27.00;23.25;;;;;10.62;100.00;100929.34;5051051;28;45348;-76
2022/09/30 06:27:54;;;;;;;;;28.50;24.75;;;;;10.64;100.00;100920.06;5034240;28;45295;-77
2022/09/30 06:30:20;;;;;;;;;22.75;22.00;;;;;10.66;100.00;100920.78;5027945;28;45408;-75
2022/09/30 06:32:46;;;;;;;;;29.00;26.00;;;;;10.68;100.00;100937.78;5039582;28;45498;-78
2022/09/30 06:35:11;;;;;;;;;33.00;28.75;;;;;10.76;100.00;100935.19;5032205;28;45600;-77
2022/09/30 06:37:37;;;;;;;;;29.25;23.25;;;;;10.99;100.00;100937.59;5048601;28;45362;-76
2022/09/30 06:40:04;;;;;;;;;30.25;25.00;;;;;11.15;100.00;100929.69;5036597;28;45525;-76
2022/09/30 06:42:30;;;;;;;;;27.00;25.00;;;;;11.22;100.00;100919.94;5037026;28;45413;-77
2022/09/30 06:44:56;;;;;;;;;31.00;25.75;;;;;11.21;100.00;100929.09;5039699;28;45440;-78
2022/09/30 06:47:21;;;;;;;;;26.25;24.75;;;;;11.26;100.00;100927.63;5037407;28;45418;-77
2022/09/30 06:49:46;;;;;;;;;34.50;29.50;;;;;11.30;100.00;100937.22;5038293;28;45414;-77
2022/09/30 06:52:12;;;;;;;;;27.75;24.00;;;;;11.52;100.00;100946.88;5047116;28;48027;-76
2022/09/30 06:54:41;;;;;;;;;25.50;24.50;;;;;11.58;100.00;100946.28;5039316;28;45326;-76
2022/09/30 06:57:07;;;;;;;;;34.25;28.00;;;;;11.59;100.00;100942.53;5042138;28;45306;-78
2022/09/30 06:59:32;;;;;;;;;32.00;27.75;;;;;11.64;100.00;100940.22;5057331;28;45352;-78
2022/09/30 07:01:57;;;;;;;;;34.25;31.25;;;;;11.78;100.00;100938.03;5033510;28;45481;-77
2022/09/30 07:04:23;;;;;;;;;34.50;32.50;;;;;11.94;100.00;100949.13;5030554;28;45425;-76
2022/09/30 07:06:49;;;;;;;;;24.25;23.50;;;;;11.94;100.00;100939.09;5040324;28;45526;-75
2022/09/30 07:09:15;;;;;;;;;32.00;29.00;;;;;11.94;100.00;100936.38;5029109;28;45458;-78
2022/09/30 07:11:41;;;;;;;;;33.50;28.75;;;;;11.99;100.00;100944.06;5036319;28;45481;-77
2022/09/30 07:14:07;;;;;;;;;33.00;25.50;;;;;11.85;100.00;100933.69;5045815;28;45259;-78
2022/09/30 07:16:33;;;;;;;;;34.50;30.00;;;;;11.94;100.00;100927.34;5037833;28;45276;-78
2022/09/30 07:19:03;;;;;;;;;29.50;28.00;;;;;12.14;100.00;100938.94;5027855;28;45244;-78
2022/09/30 07:21:30;;;;;;;;;25.25;22.75;;;;;12.29;100.00;100943.72;5041179;28;45396;-75
2022/09/30 07:23:57;;;;;;;;;31.50;24.00;;;;;12.49;100.00;100944.44;5040449;28;45319;-78
2022/09/30 07:26:24;;;;;;;;;29.50;26.00;;;;;12.58;100.00;100931.72;5035314;28;45331;-77
2022/09/30 07:28:50;;;;;;;;;29.00;26.25;;;;;12.74;100.00;100948.22;5052404;28;45655;-78
2022/09/30 07:31:19;;;;;;;;;27.75;23.00;;;;;12.92;100.00;100951.81;5038132;28;47164;-77
2022/09/30 07:33:46;;;;;;;;;25.50;22.50;;;;;13.00;100.00;100948.28;5036370;28;45216;-77
2022/09/30 07:36:17;;;;;;;;;29.50;24.75;;;;;13.11;100.00;100948.88;5042087;28;45377;-78
2022/09/30 07:38:43;;;;;;;;;30.00;27.25;;;;;13.22;99.46;100947.78;5038299;28;45409;-77
2022/09/30 07:41:13;;;;;;;;;33.75;26.50;;;;;13.24;99.50;100949.31;5039442;28;46919;-77
2022/09/30 07:43:41;;;;;;;;;27.25;23.00;;;;;13.59;100.00;100953.78;5034779;28;45221;-76
2022/09/30 07:46:09;;;;;;;;;23.50;23.50;;;;;13.92;98.25;100932.94;5036757;28;45326;-76
2022/09/30 07:51:02;;;;;;;;;25.75;23.75;;;;;14.83;93.87;100959.47;5038314;28;46206;-79
2022/09/30 07:53:28;;;;;;;;;32.00;30.50;;;;;14.57;87.38;100935.84;5036281;28;45322;-77
2022/09/30 07:55:53;;;;;;;;;30.50;30.50;;;;;14.66;87.38;100942.19;5040309;28;45540;-77
2022/09/30 07:58:18;;;;;;;;;30.00;27.75;;;;;15.15;88.19;100945.75;5027767;28;45422;-78
2022/09/30 08:00:49;;;;;;;;;27.50;24.50;;;;;15.55;86.04;100962.13;5032735;28;47066;-78
2022/09/30 08:03:14;;;;;;;;;24.25;23.75;;;;;15.84;85.91;100953.28;5030017;28;45354;-76
2022/09/30 08:05:43;;;;;;;;;28.00;24.00;;;;;16.27;81.99;100960.09;5037701;28;45519;-77
2022/09/30 08:08:08;;;;;;;;;25.75;24.50;;;;;16.57;82.39;100957.53;5025000;28;45358;-78
2022/09/30 08:10:34;;;;;;;;;26.50;26.50;;;;;16.72;77.58;100953.84;5036137;28;46640;-77
2022/09/30 08:13:00;;;;;;;;;27.00;25.50;;;;;16.55;75.18;100949.47;5034159;27;45722;-76
2022/09/30 08:15:25;;;;;;;;;36.25;29.75;;;;;16.64;74.49;100950.28;5051234;28;45532;-76
2022/09/30 08:17:50;;;;;;;;;30.25;27.25;;;;;16.95;75.83;100951.03;5025780;28;45587;-76
2022/09/30 08:20:16;;;;;;;;;26.75;26.75;;;;;17.40;75.95;100949.25;5037696;28;46977;-76
2022/09/30 08:22:41;;;;;;;;;32.00;31.00;;;;;17.72;73.04;100939.81;5028919;28;45419;-75
2022/09/30 08:25:07;;;;;;;;;28.75;27.75;;;;;17.52;69.31;100950.50;5036037;28;45451;-77
2022/09/30 08:27:32;;;;;;;;;31.25;29.25;;;;;17.59;70.39;100953.34;5036010;28;45296;-75
2022/09/30 08:29:57;;;;;;;;;32.00;29.00;;;;;17.13;69.45;100943.34;5022019;28;47808;-77
2022/09/30 08:32:23;;;;;;;;;39.75;34.00;;;;;17.63;71.35;100955.56;5038229;28;45319;-76
2022/09/30 08:34:48;;;;;;;;;29.50;27.25;;;;;18.13;70.38;100953.91;5028984;28;45288;-77
2022/09/30 08:37:13;;;;;;;;;31.25;30.50;;;;;17.96;67.22;100947.78;5039908;28;45438;-77
2022/09/30 08:39:39;;;;;;;;;28.00;27.50;;;;;17.33;67.82;100954.63;5044826;28;47568;-79
2022/09/30 08:42:19;;;;;;;;;29.50;26.75;;;;;17.40;68.91;100962.97;5033513;28;45339;-77
2022/09/30 08:44:47;;;;;;;;;28.25;28.25;;;;;17.65;67.54;100961.72;5038901;28;45358;-79
2022/09/30 08:47:40;;;;;;;;;27.33;27.33;;;;;18.05;69.95;100963.09;5036399;28;45552;-77
2022/09/30 08:50:33;;;;;;;;;29.75;28.75;;;;;18.44;67.01;100948.13;5051222;28;46132;-77
2022/09/30 08:53:04;;;;;;;;;32.25;28.00;;;;;18.57;65.45;100957.41;5025872;28;45400;-78
2022/09/30 08:55:40;;;;;;;;;26.50;26.50;;;;;18.45;64.37;100958.09;5028806;28;45440;-79
2022/09/30 08:58:15;;;;;;;;;32.50;31.25;;;;;18.49;63.98;100953.88;5035146;28;45338;-78
2022/09/30 09:00:42;;;;;;;;;40.50;33.25;;;;;18.51;65.43;100955.41;5047317;28;47183;-77
2022/09/30 09:03:12;;;;;;;;;32.25;30.00;;;;;18.34;64.50;100956.69;5025126;28;45226;-79
2022/09/30 09:05:59;;;;;;;;;26.00;25.25;;;;;18.28;66.12;100950.06;5031176;28;45449;-77
2022/09/30 09:08:30;;;;;;;;;35.75;32.25;;;;;18.58;63.68;100959.13;5029352;28;45375;-76
2022/09/30 09:11:13;;;;;;;;;34.00;30.00;;;;;19.00;63.36;100958.25;5034229;28;45520;-77
2022/09/30 09:13:59;;;;;;;;;32.75;29.75;;;;;19.37;60.13;100953.47;5029249;28;45478;-77
2022/09/30 09:16:39;;;;;;;;;25.75;25.75;;;;;18.92;60.92;100963.06;5038613;28;45426;-76
2022/09/30 09:19:10;;;;;;;;;27.00;27.00;;;;;18.71;62.00;100974.06;5029011;28;45488;-77
2022/09/30 09:21:56;;;;;;;;;39.00;32.00;;;;;19.09;61.08;100969.13;5036342;28;46183;-75
2022/09/30 09:24:33;;;;;;;;;43.75;37.25;;;;;18.97;60.86;100975.19;5030089;28;45449;-78
2022/09/30 09:26:58;;;;;;;;;28.50;25.25;;;;;18.91;59.63;100958.59;5038655;28;45346;-77
2022/09/30 09:29:53;;;;;;;;;31.00;27.75;;;;;19.15;60.18;100971.09;5034170;28;45389;-79
2022/09/30 09:32:19;;;;;;;;;24.67;23.67;;;;;19.50;58.76;100966.53;5036478;28;46643;-77
2022/09/30 09:34:51;;;;;;;;;25.00;25.00;;;;;19.77;56.74;100971.16;5031744;28;45336;-77
2022/09/30 09:38:23;;;;;;;;;21.67;21.00;;;;;19.44;56.58;100957.97;5034971;28;45356;-77
2022/09/30 09:40:22;;;;;;;;;22.00;21.33;;;;;19.86;57.64;100972.72;5044006;28;45418;-77
2022/09/30 09:42:56;;;;;;;;;23.00;21.33;;;;;20.35;57.24;100978.06;5065393;28;46734;-77
2022/09/30 09:45:38;;;;;;;;;21.00;17.33;;;;;20.65;56.64;100978.59;5048718;28;45471;-78
2022/09/30 09:48:11;;;;;;;;;21.00;18.33;;;;;20.41;53.01;100979.13;5032820;28;45300;-78
2022/09/30 09:50:51;;;;;;;;;23.50;23.00;;;;;20.10;54.40;100983.22;5036511;28;45370;-78
2022/09/30 09:53:35;;;;;;;;;21.33;21.33;;;;;19.82;54.26;100979.69;5030463;28;45592;-79
2022/09/30 09:56:01;;;;;;;;;21.00;20.33;;;;;20.42;54.80;100975.31;5034415;28;45413;-79
2022/09/30 09:58:27;;;;;;;;;24.67;23.33;;;;;20.93;53.26;100976.50;5053373;28;45448;-79
2022/09/30 10:03:25;;;;;;;;;22.67;22.00;;;;;21.44;50.81;100970.38;5027836;28;45450;-79
2022/09/30 10:06:02;;;;;;;;;18.33;16.67;;;;;20.47;50.92;100981.91;5037654;28;45413;-78
2022/09/30 10:08:30;;;;;;;;;14.67;14.67;;;;;20.60;52.54;100979.19;5044003;28;45301;-78
2022/09/30 10:10:59;;;;;;;;;24.00;21.00;;;;;20.32;50.94;100972.91;5030284;28;45669;-79
2022/09/30 10:13:42;;;;;;;;;20.33;18.33;;;;;20.43;53.04;100980.66;5047279;28;47129;-79
2022/09/30 10:16:26;;;;;;;;;17.67;16.33;;;;;21.15;50.48;100954.22;5039664;28;45243;-79
2022/09/30 10:18:52;;;;;;;;;20.33;19.00;;;;;21.33;50.42;100965.53;5034326;28;45438;-78
2022/09/30 10:21:21;;;;;;;;;13.00;13.00;;;;;20.89;50.06;100955.06;5041922;28;45456;-79
2022/09/30 10:23:47;;;;;;;;;16.67;15.00;;;;;20.40;49.43;100963.63;5030807;28;46501;-79
2022/09/30 10:26:12;;;;;;;;;15.67;15.67;;;;;19.69;50.50;100969.41;5044126;28;45445;-79
2022/09/30 10:29:00;;;;;;;;;15.00;13.33;;;;;20.21;50.81;100974.38;5041073;28;45327;-79
2022/09/30 10:31:30;;;;;;;;;13.00;13.00;;;;;20.03;49.27;100971.31;5036358;28;45561;-80
2022/09/30 10:33:59;;;;;;;;;18.00;16.67;;;;;19.96;50.58;100975.06;5036552;28;46183;-78
2022/09/30 10:36:32;;;;;;;;;15.00;14.33;;;;;19.90;50.57;100976.75;5037341;28;45318;-79
2022/09/30 10:39:22;;;;;;;;;19.67;16.67;;;;;19.78;50.29;100978.38;5043233;28;45508;-79
2022/09/30 10:41:49;;;;;;;;;20.33;18.00;;;;;19.83;51.00;100962.94;5036487;28;45332;-79
2022/09/30 10:44:22;;;;;;;;;23.00;22.75;;;;;19.77;50.87;100965.66;5051556;28;45521;-80
2022/09/30 10:46:52;;;;;;;;;22.00;20.33;;;;;19.73;51.64;100964.34;5031847;28;45251;-78
2022/09/30 10:49:44;;;;;;;;;14.67;12.00;;;;;19.58;50.21;100966.41;5031421;28;45380;-77
2022/09/30 10:52:23;;;;;;;;;14.33;14.00;;;;;19.88;51.01;100972.50;5034502;28;45593;-79
2022/09/30 10:54:53;;;;;;;;;18.33;17.67;;;;;19.88;50.32;100951.28;5036185;28;45455;-77
2022/09/30 10:57:24;;;;;;;;;19.33;18.00;;;;;19.81;51.38;100961.44;5034912;28;45330;-80
2022/09/30 11:00:05;;;;;;;;;21.00;17.33;;;;;19.77;52.11;100941.69;5026424;28;45334;-76
2022/09/30 11:02:46;;;;;;;;;21.25;21.25;;;;;19.23;53.24;100962.69;5025360;28;45520;-78
2022/09/30 11:05:26;;;;;;;;;14.00;13.33;;;;;19.34;54.05;100954.75;5029065;28;46858;-78
2022/09/30 11:08:19;;;;;;;;;14.33;13.67;;;;;19.44;53.96;100954.38;5035775;28;45455;-80
2022/09/30 11:11:16;;;;;;;;;16.00;15.33;;;;;19.52;53.87;100956.16;5032889;28;45425;-79
2022/09/30 11:14:01;;;;;;;;;20.00;17.00;;;;;19.15;54.07;100977.44;5030655;28;45623;-80
2022/09/30 11:16:38;;;;;;;;;19.00;15.67;;;;;18.73;54.18;100972.81;5027821;28;46112;-80
2022/09/30 11:19:19;;;;;;;;;13.33;12.33;;;;;18.90;54.27;100962.41;5034437;28;45401;-80
2022/09/30 11:22:11;;;;;;;;;8.67;8.67;;;;;18.61;53.51;100944.97;5037095;28;45392;-78
2022/09/30 11:24:43;;;;;;;;;13.00;13.00;;;;;18.71;52.08;100971.31;5033322;28;45343;-78
2022/09/30 11:27:21;;;;;;;;;11.33;8.00;;;;;18.70;51.55;100975.97;5038590;28;47961;-77
2022/09/30 11:29:49;;;;;;;;;10.00;10.00;;;;;19.00;52.19;100968.41;5039979;28;45298;-80